createdAt,value
2022-09-25T00:01:43.726Z,16.88
2022-09-25T00:04:13.591Z,16.88
2022-09-25T00:06:43.241Z,15.70
2022-09-25T00:09:18.479Z,16.77
2022-09-25T00:11:48.808Z,15.95
2022-09-25T00:14:19.170Z,17.20
2022-09-25T00:16:47.331Z,17.52
2022-09-25T00:19:42.745Z,18.33
2022-09-25T00:22:17.014Z,17.30
2022-09-25T00:25:03.578Z,16.15
2022-09-25T00:27:31.227Z,18.42
2022-09-25T00:30:05.264Z,18.60
2022-09-25T00:32:32.749Z,17.92
2022-09-25T00:35:00.258Z,17.25
2022-09-25T00:37:30.476Z,18.25
2022-09-25T00:39:57.926Z,19.35
2022-09-25T00:42:25.712Z,18.30
2022-09-25T00:44:58.915Z,19.50
2022-09-25T00:47:38.418Z,17.17
2022-09-25T00:50:19.088Z,19.15
2022-09-25T00:52:48.053Z,20.08
2022-09-25T00:55:17.896Z,19.73
2022-09-25T00:57:51.594Z,19.02
2022-09-25T01:00:19.061Z,19.00
2022-09-25T01:02:54.982Z,19.45
2022-09-25T01:05:27.355Z,18.38
2022-09-25T01:07:59.557Z,19.25
2022-09-25T01:10:30.005Z,18.42
2022-09-25T01:12:59.866Z,20.42
2022-09-25T01:15:47.461Z,18.63
2022-09-25T01:18:36.447Z,19.45
2022-09-25T01:21:18.641Z,19.70
2022-09-25T01:23:49.347Z,18.95
2022-09-25T01:26:21.847Z,19.00
2022-09-25T01:29:04.782Z,18.60
2022-09-25T01:31:47.860Z,19.92
2022-09-25T01:34:22.627Z,19.63
2022-09-25T01:37:14.582Z,20.33
2022-09-25T01:39:47.590Z,20.42
2022-09-25T01:42:26.038Z,20.48
2022-09-25T01:45:07.616Z,19.95
2022-09-25T01:47:40.086Z,19.90
2022-09-25T01:50:19.306Z,19.08
2022-09-25T01:52:52.792Z,19.88
2022-09-25T01:55:56.824Z,18.98
2022-09-25T01:58:38.756Z,20.80
2022-09-25T02:01:20.482Z,18.50
2022-09-25T02:06:21.673Z,20.08
2022-09-25T02:09:09.119Z,20.13
2022-09-25T02:11:44.494Z,22.02
2022-09-25T02:14:20.950Z,22.48
2022-09-25T02:16:54.814Z,22.00
2022-09-25T02:19:44.164Z,22.10
2022-09-25T02:22:23.383Z,23.33
2022-09-25T02:24:59.403Z,22.73
2022-09-25T02:27:36.679Z,20.80
2022-09-25T02:30:05.499Z,21.73
2022-09-25T02:32:33.781Z,23.50
2022-09-25T02:35:12.528Z,20.52
2022-09-25T02:37:39.828Z,21.35
2022-09-25T02:40:08.790Z,22.73
2022-09-25T02:42:49.430Z,22.00
2022-09-25T02:45:46.262Z,21.63
2022-09-25T02:48:39.274Z,22.42
2022-09-25T02:51:53.900Z,23.00
2022-09-25T02:54:50.300Z,21.30
2022-09-25T02:57:36.138Z,22.60
2022-09-25T03:00:07.547Z,24.38
2022-09-25T03:02:44.822Z,22.90
2022-09-25T03:05:20.294Z,22.30
2022-09-25T03:08:07.068Z,22.35
2022-09-25T03:10:37.211Z,23.77
2022-09-25T03:13:24.869Z,23.73
2022-09-25T03:16:20.381Z,19.70
2022-09-25T03:18:48.305Z,20.90
2022-09-25T03:21:16.215Z,21.40
2022-09-25T03:23:44.837Z,22.90
2022-09-25T03:26:12.212Z,21.80
2022-09-25T03:28:44.747Z,21.90
2022-09-25T03:31:14.774Z,21.52
2022-09-25T03:33:46.092Z,22.20
2022-09-25T03:36:22.128Z,21.73
2022-09-25T03:38:51.896Z,21.88
2022-09-25T03:41:22.261Z,22.20
2022-09-25T03:43:51.849Z,20.73
2022-09-25T03:46:25.597Z,21.90
2022-09-25T03:48:58.881Z,20.92
2022-09-25T03:51:28.243Z,21.50
2022-09-25T03:54:00.882Z,21.75
2022-09-25T03:56:32.804Z,22.85
2022-09-25T03:59:00.230Z,20.40
2022-09-25T04:01:36.557Z,22.65
2022-09-25T04:04:06.532Z,20.45
2022-09-25T04:06:39.840Z,22.73
2022-09-25T04:09:07.235Z,20.33
2022-09-25T04:11:38.389Z,21.70
2022-09-25T04:14:06.177Z,21.42
2022-09-25T04:16:35.799Z,21.48
2022-09-25T04:19:06.929Z,22.90
2022-09-25T04:21:36.821Z,21.75
2022-09-25T04:24:25.077Z,22.08
2022-09-25T04:27:14.665Z,23.08
2022-09-25T04:29:42.591Z,23.17
2022-09-25T04:32:28.378Z,23.33
2022-09-25T04:34:56.048Z,22.20
2022-09-25T04:37:28.633Z,24.23
2022-09-25T04:39:57.805Z,24.15
2022-09-25T04:42:28.259Z,24.20
2022-09-25T04:44:59.800Z,22.65
2022-09-25T04:47:33.973Z,22.40
2022-09-25T04:50:01.382Z,23.00
2022-09-25T04:52:30.172Z,23.88
2022-09-25T04:54:57.814Z,25.10
2022-09-25T04:57:53.510Z,25.38
2022-09-25T05:00:18.986Z,24.33
2022-09-25T05:02:47.152Z,22.48
2022-09-25T05:05:16.005Z,25.08
2022-09-25T05:08:00.597Z,25.15
2022-09-25T05:10:30.878Z,23.30
2022-09-25T05:13:00.574Z,23.10
2022-09-25T05:15:29.874Z,23.40
2022-09-25T05:18:26.816Z,23.58
2022-09-25T05:20:54.477Z,24.23
2022-09-25T05:23:23.935Z,23.23
2022-09-25T05:25:59.296Z,22.08
2022-09-25T05:28:26.817Z,23.00
2022-09-25T05:30:54.958Z,26.10
2022-09-25T05:33:22.279Z,22.88
2022-09-25T05:35:49.694Z,23.65
2022-09-25T05:38:17.054Z,22.02
2022-09-25T05:40:46.726Z,23.08
2022-09-25T05:43:14.806Z,23.13
2022-09-25T05:45:42.478Z,23.98
2022-09-25T05:48:10.882Z,24.63
2022-09-25T05:50:38.660Z,24.48
2022-09-25T05:53:06.323Z,25.27
2022-09-25T05:55:34.792Z,26.50
2022-09-25T05:58:04.071Z,27.02
2022-09-25T06:00:36.358Z,25.55
2022-09-25T06:03:03.876Z,26.10
2022-09-25T06:05:31.586Z,28.50
2022-09-25T06:07:58.969Z,30.15
2022-09-25T06:10:26.884Z,26.98
2022-09-25T06:13:01.432Z,26.80
2022-09-25T06:15:36.131Z,28.48
2022-09-25T06:18:11.736Z,28.13
2022-09-25T06:20:39.331Z,28.60
2022-09-25T06:23:06.698Z,29.70
2022-09-25T06:25:34.094Z,29.30
2022-09-25T06:28:02.574Z,28.95
2022-09-25T06:30:36.080Z,28.45
2022-09-25T06:33:12.765Z,28.23
2022-09-25T06:35:44.214Z,30.08
2022-09-25T06:38:12.539Z,28.23
2022-09-25T06:40:41.664Z,28.38
2022-09-25T06:43:18.968Z,28.38
2022-09-25T06:45:51.273Z,26.42
2022-09-25T06:48:21.874Z,27.45
2022-09-25T06:50:51.332Z,28.45
2022-09-25T06:53:21.015Z,29.45
2022-09-25T06:55:49.676Z,28.02
2022-09-25T06:58:21.050Z,27.27
2022-09-25T07:00:53.664Z,26.58
2022-09-25T07:03:40.178Z,27.00
2022-09-25T07:06:14.555Z,25.83
2022-09-25T07:08:45.189Z,26.50
2022-09-25T07:11:31.959Z,29.33
2022-09-25T07:13:59.481Z,27.63
2022-09-25T07:16:32.634Z,26.67
2022-09-25T07:19:01.118Z,28.63
2022-09-25T07:21:30.777Z,29.25
2022-09-25T07:23:59.065Z,29.13
2022-09-25T07:26:29.601Z,29.67
2022-09-25T07:29:06.450Z,30.30
2022-09-25T07:31:36.283Z,28.77
2022-09-25T07:34:09.620Z,30.27
2022-09-25T07:36:41.383Z,28.30
2022-09-25T07:41:46.566Z,27.48
2022-09-25T07:44:38.288Z,28.13
2022-09-25T07:47:07.279Z,27.83
2022-09-25T07:49:35.172Z,28.25
2022-09-25T07:52:06.871Z,27.33
2022-09-25T07:54:38.067Z,27.33
2022-09-25T07:57:05.874Z,25.75
2022-09-25T07:59:33.876Z,26.80
2022-09-25T08:02:01.559Z,25.25
2022-09-25T08:04:29.211Z,25.85
2022-09-25T08:07:00.131Z,25.90
2022-09-25T08:09:27.501Z,26.52
2022-09-25T08:11:54.870Z,25.55
2022-09-25T08:14:27.015Z,24.40
2022-09-25T08:16:56.089Z,23.65
2022-09-25T08:19:24.161Z,23.70
2022-09-25T08:21:54.612Z,24.15
2022-09-25T08:24:26.681Z,23.30
2022-09-25T08:26:57.854Z,23.95
2022-09-25T08:29:27.423Z,24.35
2022-09-25T08:31:57.912Z,23.13
2022-09-25T08:34:41.846Z,23.60
2022-09-25T08:37:12.826Z,23.77
2022-09-25T08:39:40.124Z,21.83
2022-09-25T08:42:15.609Z,22.95
2022-09-25T08:45:02.778Z,21.88
2022-09-25T08:47:55.507Z,21.92
2022-09-25T08:50:26.620Z,22.10
2022-09-25T08:53:14.948Z,20.60
2022-09-25T08:56:01.374Z,21.00
2022-09-25T08:58:42.699Z,22.55
2022-09-25T09:01:39.177Z,20.23
2022-09-25T09:04:26.593Z,20.13
2022-09-25T09:07:25.123Z,21.25
2022-09-25T09:09:56.536Z,20.13
2022-09-25T09:12:44.154Z,21.02
2022-09-25T09:15:43.040Z,20.13
2022-09-25T09:18:19.415Z,20.02
2022-09-25T09:20:58.547Z,20.50
2022-09-25T09:23:57.677Z,19.55
2022-09-25T09:26:38.892Z,20.98
2022-09-25T09:29:27.338Z,20.48
2022-09-25T09:32:16.689Z,19.10
2022-09-25T09:35:07.420Z,20.85
2022-09-25T09:37:57.976Z,20.85
2022-09-25T09:40:47.224Z,20.42
2022-09-25T09:43:47.544Z,18.65
2022-09-25T09:46:23.949Z,19.13
2022-09-25T09:49:05.648Z,19.60
2022-09-25T09:54:36.495Z,15.85
2022-09-25T09:57:12.645Z,17.85
2022-09-25T10:00:05.565Z,18.70
2022-09-25T10:02:56.963Z,17.98
2022-09-25T10:05:26.083Z,18.08
2022-09-25T10:07:54.020Z,17.98
2022-09-25T10:10:24.428Z,17.58
2022-09-25T10:12:54.108Z,17.50
2022-09-25T10:15:30.234Z,16.73
2022-09-25T10:18:00.962Z,17.48
2022-09-25T10:20:42.717Z,16.67
2022-09-25T10:23:33.592Z,17.33
2022-09-25T10:26:07.226Z,15.73
2022-09-25T10:28:39.072Z,16.52
2022-09-25T10:31:09.669Z,16.23
2022-09-25T10:33:37.460Z,15.73
2022-09-25T10:36:07.065Z,15.10
2022-09-25T10:38:53.480Z,14.18
2022-09-25T10:41:26.752Z,14.73
2022-09-25T10:44:02.635Z,17.50
2022-09-25T10:46:52.771Z,14.80
2022-09-25T10:49:40.132Z,14.88
2022-09-25T10:52:09.522Z,14.63
2022-09-25T10:54:43.709Z,14.93
2022-09-25T10:57:18.215Z,13.40
2022-09-25T10:59:51.282Z,14.18
2022-09-25T11:02:29.990Z,14.32
2022-09-25T11:04:57.667Z,12.60
2022-09-25T11:07:27.939Z,12.35
2022-09-25T11:09:59.907Z,11.23
2022-09-25T11:12:34.605Z,12.10
2022-09-25T11:15:09.981Z,13.38
2022-09-25T11:17:51.806Z,12.13
2022-09-25T11:20:33.293Z,12.55
2022-09-25T11:26:01.223Z,12.77
2022-09-25T11:28:59.027Z,12.82
2022-09-25T11:31:46.712Z,12.40
2022-09-25T11:34:38.843Z,12.45
2022-09-25T11:37:43.672Z,12.40
2022-09-25T11:40:48.225Z,11.95
2022-09-25T11:43:21.099Z,11.35
2022-09-25T11:45:57.066Z,11.52
2022-09-25T11:48:40.498Z,11.27
2022-09-25T11:51:39.346Z,12.60
2022-09-25T11:54:33.210Z,11.10
2022-09-25T11:57:11.354Z,10.63
2022-09-25T11:59:53.347Z,11.43
2022-09-25T12:02:38.888Z,11.18
2022-09-25T12:05:09.079Z,11.43
2022-09-25T12:07:56.882Z,11.63
2022-09-25T12:10:46.216Z,11.60
2022-09-25T12:13:24.166Z,11.23
2022-09-25T12:16:10.434Z,12.77
2022-09-25T12:19:09.591Z,10.68
2022-09-25T12:21:55.439Z,10.52
2022-09-25T12:24:34.465Z,10.60
2022-09-25T12:27:32.093Z,10.55
2022-09-25T12:30:22.119Z,9.80
2022-09-25T12:33:20.989Z,10.18
2022-09-25T12:35:59.861Z,10.40
2022-09-25T12:38:39.056Z,10.55
2022-09-25T12:41:18.375Z,11.88
2022-09-25T12:44:05.396Z,11.05
2022-09-25T12:46:57.777Z,10.27
2022-09-25T12:49:42.003Z,10.00
2022-09-25T12:52:30.358Z,9.77
2022-09-25T12:55:13.765Z,10.13
2022-09-25T12:57:49.446Z,9.90
2022-09-25T13:00:34.159Z,9.63
2022-09-25T13:03:15.915Z,11.13
2022-09-25T13:06:07.554Z,9.95
2022-09-25T13:08:55.639Z,11.07
2022-09-25T13:11:42.775Z,9.85
2022-09-25T13:14:51.390Z,9.40
2022-09-25T13:17:19.412Z,9.32
2022-09-25T13:19:55.296Z,10.52
2022-09-25T13:22:28.165Z,9.82
2022-09-25T13:25:14.187Z,10.15
2022-09-25T13:27:46.392Z,9.45
2022-09-25T13:30:30.794Z,10.18
2022-09-25T13:33:07.606Z,9.43
2022-09-25T13:35:35.379Z,9.35
2022-09-25T13:38:37.936Z,9.82
2022-09-25T13:41:17.410Z,10.43
2022-09-25T13:43:49.071Z,9.40
2022-09-25T13:46:23.735Z,10.02
2022-09-25T13:48:55.841Z,9.18
2022-09-25T13:51:35.850Z,9.27
2022-09-25T13:54:10.684Z,10.57
2022-09-25T13:56:41.106Z,9.27
2022-09-25T13:59:15.067Z,9.53
2022-09-25T14:01:49.822Z,10.57
2022-09-25T14:04:32.909Z,9.60
2022-09-25T14:07:23.472Z,8.90
2022-09-25T14:09:56.184Z,8.65
2022-09-25T14:12:43.282Z,9.50
2022-09-25T14:15:43.074Z,9.40
2022-09-25T14:18:19.984Z,9.52
2022-09-25T14:20:57.786Z,9.82
2022-09-25T14:23:30.152Z,9.68
2022-09-25T14:26:01.713Z,11.95
2022-09-25T14:28:43.760Z,9.25
2022-09-25T14:31:30.561Z,10.80
2022-09-25T14:34:05.386Z,8.75
2022-09-25T14:36:37.453Z,8.80
2022-09-25T14:39:54.394Z,9.32
2022-09-25T14:42:27.931Z,9.68
2022-09-25T14:45:22.171Z,8.68
2022-09-25T14:47:51.882Z,7.70
2022-09-25T14:50:38.710Z,8.10
2022-09-25T14:53:12.060Z,8.70
2022-09-25T14:55:49.812Z,8.50
2022-09-25T14:58:22.558Z,8.27
2022-09-25T15:00:53.604Z,7.65
2022-09-25T15:03:31.535Z,7.95
2022-09-25T15:06:04.121Z,8.25
2022-09-25T15:08:38.478Z,7.32
2022-09-25T15:11:14.355Z,8.45
2022-09-25T15:13:48.933Z,8.85
2022-09-25T15:16:41.614Z,8.43
2022-09-25T15:19:25.136Z,7.47
2022-09-25T15:21:58.108Z,7.90
2022-09-25T15:24:35.752Z,7.38
2022-09-25T15:27:09.037Z,7.40
2022-09-25T15:29:42.601Z,7.68
2022-09-25T15:32:18.641Z,6.90
2022-09-25T15:34:46.079Z,7.65
2022-09-25T15:37:26.466Z,7.63
2022-09-25T15:39:54.705Z,6.70
2022-09-25T15:42:22.782Z,6.45
2022-09-25T15:44:50.681Z,7.13
2022-09-25T15:47:36.337Z,5.65
2022-09-25T15:50:08.720Z,6.00
2022-09-25T15:52:36.188Z,6.13
2022-09-25T15:55:14.721Z,6.65
2022-09-25T15:57:42.685Z,7.72
2022-09-25T16:00:38.274Z,5.88
2022-09-25T16:03:42.873Z,5.97
2022-09-25T16:06:15.853Z,6.40
2022-09-25T16:08:44.030Z,6.65
2022-09-25T16:11:37.791Z,5.93
2022-09-25T16:14:22.237Z,7.45
2022-09-25T16:16:51.097Z,6.45
2022-09-25T16:19:34.346Z,8.20
2022-09-25T16:22:23.471Z,8.23
2022-09-25T16:24:53.979Z,7.45
2022-09-25T16:27:26.803Z,7.88
2022-09-25T16:29:59.990Z,8.02
2022-09-25T16:32:30.498Z,7.88
2022-09-25T16:35:00.757Z,7.05
2022-09-25T16:37:34.057Z,6.70
2022-09-25T16:40:25.732Z,9.68
2022-09-25T16:45:24.196Z,11.38
2022-09-25T16:47:52.402Z,11.82
2022-09-25T16:50:21.549Z,18.25
2022-09-25T16:52:50.598Z,11.73
2022-09-25T16:55:19.740Z,18.30
2022-09-25T16:57:47.185Z,13.13
2022-09-25T17:00:18.195Z,13.95
2022-09-25T17:02:48.576Z,13.27
2022-09-25T17:05:18.023Z,14.77
2022-09-25T17:07:52.718Z,14.82
2022-09-25T17:10:31.825Z,14.80
2022-09-25T17:13:02.160Z,15.55
2022-09-25T17:15:33.841Z,18.27
2022-09-25T17:18:14.523Z,19.52
2022-09-25T17:20:45.546Z,19.27
2022-09-25T17:23:18.456Z,20.63
2022-09-25T17:25:50.624Z,21.45
2022-09-25T17:28:18.142Z,20.90
2022-09-25T17:30:46.047Z,21.30
2022-09-25T17:33:19.650Z,22.45
2022-09-25T17:35:52.939Z,22.67
2022-09-25T17:38:22.729Z,24.15
2022-09-25T17:40:54.305Z,24.23
2022-09-25T17:45:56.270Z,24.95
2022-09-25T17:48:29.559Z,26.15
2022-09-25T17:51:06.143Z,27.92
2022-09-25T17:53:36.609Z,25.25
2022-09-25T17:56:04.208Z,28.95
2022-09-25T17:58:34.153Z,26.20
2022-09-25T18:01:06.673Z,27.77
2022-09-25T18:03:34.181Z,26.00
2022-09-25T18:06:03.771Z,26.15
2022-09-25T18:08:31.301Z,27.27
2022-09-25T18:11:03.238Z,26.85
2022-09-25T18:13:40.725Z,28.33
2022-09-25T18:16:21.408Z,26.60
2022-09-25T18:19:10.642Z,28.27
2022-09-25T18:21:56.715Z,27.60
2022-09-25T18:24:26.645Z,26.58
2022-09-25T18:27:01.846Z,31.20
2022-09-25T18:29:32.339Z,27.42
2022-09-25T18:32:00.430Z,27.50
2022-09-25T18:34:30.663Z,28.33
2022-09-25T18:37:02.779Z,27.92
2022-09-25T18:39:30.605Z,29.85
2022-09-25T18:42:02.802Z,29.05
2022-09-25T18:44:31.192Z,28.95
2022-09-25T18:46:58.671Z,29.08
2022-09-25T18:49:26.463Z,28.92
2022-09-25T18:51:54.664Z,29.33
2022-09-25T18:54:24.788Z,28.20
2022-09-25T18:56:52.580Z,27.52
2022-09-25T18:59:19.869Z,25.17
2022-09-25T19:01:47.655Z,16.17
2022-09-25T19:04:16.971Z,13.48
2022-09-25T19:06:44.397Z,12.25
2022-09-25T19:09:16.999Z,11.50
2022-09-25T19:11:45.496Z,12.00
2022-09-25T19:14:14.703Z,7.60
2022-09-25T19:16:45.784Z,7.20
2022-09-25T19:19:14.158Z,6.47
2022-09-25T19:21:46.583Z,6.50
2022-09-25T19:24:14.187Z,7.40
2022-09-25T19:26:42.758Z,6.90
2022-09-25T19:29:12.997Z,5.97
2022-09-25T19:31:40.601Z,5.32
2022-09-25T19:34:08.109Z,5.43
2022-09-25T19:36:38.841Z,4.68
2022-09-25T19:39:12.225Z,3.90
2022-09-25T19:41:43.399Z,3.85
2022-09-25T19:44:14.343Z,3.13
2022-09-25T19:46:45.953Z,4.18
2022-09-25T19:49:15.221Z,3.75
2022-09-25T19:51:43.766Z,3.70
2022-09-25T19:54:14.125Z,4.22
2022-09-25T19:56:46.640Z,5.22
2022-09-25T19:59:17.815Z,6.50
2022-09-25T20:01:45.856Z,5.53
2022-09-25T20:04:20.486Z,5.03
2022-09-25T20:06:51.174Z,4.25
2022-09-25T20:09:21.193Z,4.80
2022-09-25T20:11:48.768Z,4.43
2022-09-25T20:14:16.111Z,4.07
2022-09-25T20:16:48.536Z,5.63
2022-09-25T20:19:16.388Z,3.63
2022-09-25T20:21:43.683Z,4.55
2022-09-25T20:24:14.249Z,4.18
2022-09-25T20:26:43.962Z,4.47
2022-09-25T20:29:14.114Z,5.85
2022-09-25T20:31:45.526Z,6.60
2022-09-25T20:34:15.885Z,4.95
2022-09-25T20:36:43.951Z,5.22
2022-09-25T20:39:13.653Z,4.72
2022-09-25T20:41:44.617Z,4.53
2022-09-25T20:44:19.529Z,5.00
2022-09-25T20:46:46.895Z,4.55
2022-09-25T20:49:17.808Z,5.72
2022-09-25T20:51:45.457Z,4.18
2022-09-25T20:54:12.991Z,3.80
2022-09-25T20:56:46.936Z,4.38
2022-09-25T20:59:17.869Z,4.25
2022-09-25T21:01:45.245Z,4.40
2022-09-25T21:04:12.882Z,4.22
2022-09-25T21:06:44.672Z,4.22
2022-09-25T21:09:23.162Z,5.50
2022-09-25T21:11:57.016Z,4.78
2022-09-25T21:14:27.255Z,4.53
2022-09-25T21:16:56.371Z,6.28
2022-09-25T21:19:23.959Z,4.95
2022-09-25T21:21:53.877Z,5.10
2022-09-25T21:24:24.228Z,5.07
2022-09-25T21:26:51.651Z,4.68
2022-09-25T21:29:19.928Z,4.95
2022-09-25T21:31:50.347Z,5.03
2022-09-25T21:34:19.551Z,5.55
2022-09-25T21:36:49.508Z,5.70
2022-09-25T21:39:17.125Z,25.92
2022-09-25T21:41:44.995Z,17.52
2022-09-25T21:44:14.809Z,10.25
2022-09-25T21:46:42.776Z,6.40
2022-09-25T21:49:19.139Z,8.43
2022-09-25T21:51:47.430Z,8.27
2022-09-25T21:54:16.598Z,9.35
2022-09-25T21:56:48.665Z,9.60
2022-09-25T21:59:18.809Z,11.82
2022-09-25T22:01:46.357Z,10.05
2022-09-25T22:04:14.205Z,10.65
2022-09-25T22:06:49.223Z,9.73
2022-09-25T22:09:27.425Z,12.07
2022-09-25T22:11:54.868Z,8.57
2022-09-25T22:14:24.863Z,8.93
2022-09-25T22:16:54.631Z,9.80
2022-09-25T22:19:30.471Z,9.73
2022-09-25T22:21:59.365Z,9.77
2022-09-25T22:24:27.219Z,8.77
2022-09-25T22:26:55.722Z,8.55
2022-09-25T22:29:23.545Z,10.93
2022-09-25T22:31:53.602Z,9.82
2022-09-25T22:34:26.727Z,10.45
2022-09-25T22:36:59.865Z,11.18
2022-09-25T22:39:41.747Z,9.68
2022-09-25T22:42:09.190Z,12.40
2022-09-25T22:44:38.543Z,12.88
2022-09-25T22:47:05.863Z,9.95
2022-09-25T22:49:35.538Z,9.18
2022-09-25T22:52:07.952Z,8.90
2022-09-25T22:54:35.265Z,7.80
2022-09-25T22:57:05.109Z,8.50
2022-09-25T22:59:34.867Z,9.65
2022-09-25T23:02:04.475Z,8.20
2022-09-25T23:04:31.758Z,8.20
2022-09-25T23:06:59.040Z,8.38
2022-09-25T23:09:26.969Z,11.88
2022-09-25T23:11:55.904Z,8.63
2022-09-25T23:14:28.280Z,7.95
2022-09-25T23:16:55.865Z,8.43
2022-09-25T23:19:26.264Z,7.93
2022-09-25T23:21:54.710Z,8.57
2022-09-25T23:24:23.241Z,9.18
2022-09-25T23:26:53.182Z,8.50
2022-09-25T23:29:21.930Z,9.95
2022-09-25T23:31:50.282Z,8.73
2022-09-25T23:34:18.489Z,8.57
2022-09-25T23:36:45.966Z,9.05
2022-09-25T23:39:22.332Z,8.55
2022-09-25T23:41:49.712Z,9.02
2022-09-25T23:44:17.439Z,9.15
2022-09-25T23:46:44.993Z,9.48
2022-09-25T23:49:12.870Z,9.23
2022-09-25T23:51:42.511Z,9.43
2022-09-25T23:54:12.881Z,9.40
2022-09-25T23:56:42.565Z,9.07
2022-09-25T23:59:11.876Z,15.15
